Time;durP1;ratioP1;P1;durP2;ratioP2;P2;SDS_P1;SDS_P2;PMS_P1;PMS_P2;Temp;Humidity;BMP_temperature;BMP_pressure;BME280_temperature;BME280_humidity;BME280_pressure;Samples;Min_cycle;Max_cycle;Signal;HPM_P1;HPM_P2
2024/01/10 06:00:25;;;;;;;40.17;18.83;;;-2.90;75.90;;;;;;4803395;23;20035;-76
2024/01/10 06:02:27;;;;;;;37.70;18.50;;;-2.90;75.90;;;;;;4085394;29;20269;-76
2024/01/10 06:04:31;;;;;;;34.65;17.52;;;-2.90;76.50;;;;;;4088118;29;20468;-78
2024/01/10 06:06:33;;;;;;;37.45;17.70;;;-2.90;76.30;;;;;;4087829;29;20139;-77
2024/01/10 06:08:35;;;;;;;35.55;17.85;;;-2.90;76.00;;;;;;4087427;29;20090;-80
2024/01/10 06:10:37;;;;;;;36.55;18.17;;;-2.90;76.10;;;;;;4088156;29;20087;-78
2024/01/10 06:12:38;;;;;;;36.78;17.13;;;-2.90;76.10;;;;;;4089787;29;20055;-79
2024/01/10 06:14:39;;;;;;;34.22;17.20;;;-2.90;75.70;;;;;;4095232;29;20094;-77
2024/01/10 06:16:43;;;;;;;34.78;17.73;;;-2.90;75.10;;;;;;4091223;29;20055;-77
2024/01/10 06:18:44;;;;;;;36.45;17.45;;;-2.80;74.70;;;;;;4095837;29;20043;-77
2024/01/10 06:20:46;;;;;;;35.58;17.30;;;-2.80;74.30;;;;;;4090594;29;20102;-76
2024/01/10 06:22:48;;;;;;;35.17;16.48;;;-2.80;74.30;;;;;;4089943;29;20047;-73
2024/01/10 06:24:49;;;;;;;50.25;22.65;;;-2.80;74.10;;;;;;4088605;29;20047;-77
2024/01/10 06:26:51;;;;;;;36.08;17.33;;;-2.70;74.20;;;;;;4087397;29;20048;-78
2024/01/10 06:28:52;;;;;;;34.97;17.58;;;-2.80;74.10;;;;;;4087373;29;20460;-77
2024/01/10 06:30:54;;;;;;;36.88;18.17;;;-2.80;73.80;;;;;;4087389;29;20044;-77
2024/01/10 06:32:57;;;;;;;39.65;18.67;;;-2.70;73.70;;;;;;4087578;29;20075;-77
2024/01/10 06:35:00;;;;;;;34.25;17.75;;;-2.70;73.80;;;;;;4087326;29;20050;-79
2024/01/10 06:37:02;;;;;;;36.60;17.83;;;-2.80;73.90;;;;;;4087502;29;20056;-78
2024/01/10 06:39:04;;;;;;;38.63;18.73;;;-2.80;73.90;;;;;;4087295;29;20115;-77
2024/01/10 06:41:09;;;;;;;35.72;17.92;;;-2.80;73.80;;;;;;4087077;29;20048;-78
2024/01/10 06:43:11;;;;;;;35.50;17.88;;;-2.80;74.00;;;;;;4087158;29;20498;-78
2024/01/10 06:45:12;;;;;;;35.70;17.77;;;-2.80;74.30;;;;;;4086972;29;20051;-76
2024/01/10 06:47:14;;;;;;;34.70;17.65;;;-2.90;74.60;;;;;;4087184;29;20063;-77
2024/01/10 06:49:17;;;;;;;35.38;17.95;;;-2.90;74.70;;;;;;4087149;29;20405;-79
2024/01/10 06:51:19;;;;;;;34.53;17.75;;;-2.90;75.00;;;;;;4087088;29;20485;-78
2024/01/10 06:53:20;;;;;;;37.92;18.20;;;-3.00;75.30;;;;;;4087034;29;20095;-78
2024/01/10 06:55:24;;;;;;;37.20;18.55;;;-3.10;75.60;;;;;;4087013;29;20056;-80
2024/01/10 06:57:26;;;;;;;39.95;18.67;;;-3.20;76.20;;;;;;4087076;29;20079;-78
2024/01/10 06:59:28;;;;;;;36.28;18.48;;;-3.20;76.60;;;;;;4087055;29;20175;-78
2024/01/10 07:01:30;;;;;;;37.72;18.23;;;-3.30;76.50;;;;;;4095391;29;20055;-79
2024/01/10 07:03:32;;;;;;;40.60;19.75;;;-3.30;76.40;;;;;;4102424;29;20055;-78
2024/01/10 07:05:35;;;;;;;39.15;19.58;;;-3.30;76.30;;;;;;4102787;29;20558;-78
2024/01/10 07:07:36;;;;;;;41.78;21.50;;;-3.40;76.40;;;;;;4102427;29;20051;-77
2024/01/10 07:09:39;;;;;;;43.97;20.55;;;-3.40;76.60;;;;;;4102706;29;20110;-77
2024/01/10 07:11:40;;;;;;;36.13;18.73;;;-3.40;76.80;;;;;;4102489;28;20083;-77
2024/01/10 07:13:41;;;;;;;38.63;19.30;;;-3.40;77.20;;;;;;4102636;29;20130;-80
2024/01/10 07:15:43;;;;;;;39.33;18.92;;;-3.50;77.30;;;;;;4102725;29;20452;-80
2024/01/10 07:17:45;;;;;;;36.50;18.73;;;-3.50;77.20;;;;;;4102689;29;20055;-78
2024/01/10 07:19:47;;;;;;;37.92;19.70;;;-3.40;77.10;;;;;;4102513;29;20051;-76
2024/01/10 07:21:51;;;;;;;38.90;18.98;;;-3.50;77.10;;;;;;4102564;29;20457;-79
2024/01/10 07:23:53;;;;;;;36.75;18.23;;;-3.40;77.10;;;;;;4102656;29;20086;-76
2024/01/10 07:25:54;;;;;;;38.55;19.15;;;-3.40;77.20;;;;;;4102582;29;20389;-75
2024/01/10 07:27:56;;;;;;;39.17;19.25;;;-3.40;78.20;;;;;;4102625;29;20051;-76
2024/01/10 07:29:59;;;;;;;39.58;17.90;;;-3.40;77.40;;;;;;4102720;29;20401;-77
2024/01/10 07:32:00;;;;;;;38.80;18.23;;;-3.30;77.20;;;;;;4102331;29;20058;-78
2024/01/10 07:34:04;;;;;;;38.13;19.08;;;-3.30;77.10;;;;;;4102776;29;20051;-76
2024/01/10 07:36:07;;;;;;;37.95;18.63;;;-3.30;76.70;;;;;;4102082;29;20055;-79
2024/01/10 07:38:10;;;;;;;38.47;18.80;;;-3.20;76.70;;;;;;4102626;29;20084;-76
2024/01/10 07:40:13;;;;;;;36.28;18.70;;;-3.20;76.70;;;;;;4102064;29;20098;-75
2024/01/10 07:42:14;;;;;;;36.78;18.33;;;-3.10;76.70;;;;;;4102426;29;20528;-78
2024/01/10 07:44:16;;;;;;;37.03;17.67;;;-3.10;76.80;;;;;;4102395;29;20047;-77
2024/01/10 07:46:18;;;;;;;39.58;18.83;;;-3.00;76.50;;;;;;4102335;29;20052;-78
2024/01/10 07:48:20;;;;;;;36.92;18.13;;;-3.00;76.30;;;;;;4102232;29;20047;-79
2024/01/10 07:50:27;;;;;;;34.38;18.17;;;-2.90;75.80;;;;;;4102376;29;20513;-79
2024/01/10 07:52:28;;;;;;;38.20;18.23;;;-2.90;75.90;;;;;;4105023;29;20047;-75
2024/01/10 07:54:32;;;;;;;38.95;18.38;;;-2.90;75.90;;;;;;4114176;29;20051;-77
2024/01/10 07:56:34;;;;;;;39.20;19.00;;;-2.90;76.00;;;;;;4103413;29;20258;-76
2024/01/10 07:58:35;;;;;;;38.55;17.63;;;-2.80;76.00;;;;;;4102194;29;20047;-75
2024/01/10 08:00:36;;;;;;;38.17;18.77;;;-2.80;75.70;;;;;;4101787;29;20055;-77
2024/01/10 08:02:38;;;;;;;37.63;18.85;;;-2.80;75.80;;;;;;4101812;29;20048;-77
2024/01/10 08:04:40;;;;;;;38.72;19.02;;;-2.90;77.20;;;;;;4101935;29;20047;-77
2024/01/10 08:06:42;;;;;;;37.65;18.52;;;-2.90;76.30;;;;;;4101884;29;20047;-78
2024/01/10 08:08:44;;;;;;;39.90;19.25;;;-2.80;76.10;;;;;;4101968;29;20051;-76
2024/01/10 08:10:47;;;;;;;35.42;18.23;;;-2.80;76.00;;;;;;4102033;29;20460;-75
2024/01/10 08:12:49;;;;;;;38.60;18.45;;;-2.80;76.20;;;;;;4102148;29;20385;-78
2024/01/10 08:14:51;;;;;;;35.45;17.23;;;-2.80;76.20;;;;;;4101555;29;20121;-75
2024/01/10 08:16:54;;;;;;;36.92;18.77;;;-2.70;76.00;;;;;;4101935;29;20044;-77
2024/01/10 08:18:56;;;;;;;37.15;19.00;;;-2.70;75.90;;;;;;4102231;29;20130;-77
2024/01/10 08:20:58;;;;;;;38.35;19.05;;;-2.70;76.30;;;;;;4101783;29;20438;-76
2024/01/10 08:22:59;;;;;;;42.30;19.92;;;-2.70;76.50;;;;;;4100977;28;20047;-77
2024/01/10 08:25:02;;;;;;;42.15;20.17;;;-2.70;76.30;;;;;;4101689;29;20050;-78
2024/01/10 08:27:06;;;;;;;40.97;19.60;;;-2.70;76.40;;;;;;4101171;29;20445;-79
2024/01/10 08:29:06;;;;;;;35.40;19.13;;;-2.70;76.20;;;;;;4101509;29;20047;-78
2024/01/10 08:31:08;;;;;;;39.47;19.15;;;-2.70;76.60;;;;;;4101506;29;20051;-78
2024/01/10 08:33:10;;;;;;;37.90;19.65;;;-2.60;75.70;;;;;;4101321;29;20106;-76
2024/01/10 08:35:12;;;;;;;38.95;19.20;;;-2.70;76.20;;;;;;4101126;29;20047;-77
2024/01/10 08:37:14;;;;;;;36.30;18.23;;;-2.70;75.60;;;;;;4101409;29;20106;-78
2024/01/10 08:39:16;;;;;;;40.67;19.38;;;-2.60;75.40;;;;;;4101479;29;20058;-78
2024/01/10 08:41:19;;;;;;;42.25;20.90;;;-2.60;75.50;;;;;;4101500;29;20051;-75
2024/01/10 08:43:22;;;;;;;38.63;19.27;;;-2.60;75.60;;;;;;4101451;29;20051;-76
2024/01/10 08:45:24;;;;;;;38.63;19.20;;;-2.50;75.10;;;;;;4101370;29;20054;-74
2024/01/10 08:47:26;;;;;;;40.97;20.45;;;-2.50;75.00;;;;;;4101914;29;20051;-76
2024/01/10 08:49:28;;;;;;;41.33;21.35;;;-2.50;74.90;;;;;;4102534;29;20460;-74
2024/01/10 08:51:30;;;;;;;39.55;19.98;;;-2.60;74.90;;;;;;4101844;29;20043;-77
2024/01/10 08:53:32;;;;;;;42.25;20.20;;;-2.60;75.10;;;;;;4101373;29;20083;-76
2024/01/10 08:55:33;;;;;;;35.63;18.85;;;-2.60;74.50;;;;;;4101226;29;20396;-76
2024/01/10 08:57:36;;;;;;;36.95;18.65;;;-2.60;74.20;;;;;;4101205;29;20043;-77
2024/01/10 08:59:43;;;;;;;39.17;20.13;;;-2.50;74.00;;;;;;4101159;29;20539;-77
2024/01/10 09:01:45;;;;;;;38.38;18.92;;;-2.60;73.90;;;;;;4101165;29;20094;-79
2024/01/10 09:03:46;;;;;;;39.78;19.25;;;-2.60;73.60;;;;;;4101298;29;20101;-78
2024/01/10 09:05:48;;;;;;;38.40;19.38;;;-2.60;73.90;;;;;;4107228;29;20082;-76
2024/01/10 09:07:50;;;;;;;39.95;19.05;;;-2.60;73.50;;;;;;4104746;29;20083;-79
2024/01/10 09:09:52;;;;;;;35.40;19.27;;;-2.60;73.50;;;;;;4101020;29;20047;-77
2024/01/10 09:11:54;;;;;;;35.85;19.15;;;-2.60;73.40;;;;;;4100774;29;20062;-77
2024/01/10 09:13:55;;;;;;;39.50;19.52;;;-2.60;73.10;;;;;;4100980;29;20047;-78
2024/01/10 09:15:58;;;;;;;36.30;18.90;;;-2.50;72.50;;;;;;4101465;29;20051;-76
2024/01/10 09:18:00;;;;;;;37.78;19.35;;;-2.60;72.50;;;;;;4101006;29;20314;-76
2024/01/10 09:20:03;;;;;;;40.42;19.25;;;-2.50;72.80;;;;;;4100590;29;20051;-74
2024/01/10 09:22:05;;;;;;;38.25;19.08;;;-2.50;73.00;;;;;;4101110;29;20086;-78
2024/01/10 09:24:10;;;;;;;37.22;19.60;;;-2.50;72.90;;;;;;4100919;29;20094;-79
2024/01/10 09:26:12;;;;;;;38.08;19.33;;;-2.50;73.10;;;;;;4101116;29;20051;-76
2024/01/10 09:28:15;;;;;;;42.33;19.85;;;-2.50;73.20;;;;;;4100575;29;20059;-76
2024/01/10 09:30:18;;;;;;;39.17;19.50;;;-2.40;73.10;;;;;;4100790;29;20046;-78
2024/01/10 09:32:20;;;;;;;36.35;18.27;;;-2.30;72.50;;;;;;4100448;29;20543;-77
2024/01/10 09:34:22;;;;;;;37.75;19.25;;;-2.30;71.90;;;;;;4100543;28;20444;-79
2024/01/10 09:36:23;;;;;;;40.92;20.55;;;-2.20;71.10;;;;;;4100478;29;20110;-81
2024/01/10 09:38:25;;;;;;;40.08;19.73;;;-2.10;71.30;;;;;;4100510;29;20470;-80
2024/01/10 09:40:29;;;;;;;40.40;20.17;;;-2.00;71.50;;;;;;4100433;29;20047;-76
2024/01/10 09:42:31;;;;;;;41.97;21.40;;;-1.90;71.50;;;;;;4100766;29;20074;-76
2024/01/10 09:44:33;;;;;;;38.13;20.10;;;-1.90;71.20;;;;;;4100413;29;20047;-73
2024/01/10 09:46:38;;;;;;;40.90;20.38;;;-2.00;71.50;;;;;;4100534;29;20500;-79
2024/01/10 09:48:42;;;;;;;38.10;19.55;;;-1.90;71.90;;;;;;4100775;29;20464;-78
2024/01/10 09:50:44;;;;;;;42.30;22.17;;;-1.90;72.10;;;;;;4100488;29;20078;-80
2024/01/10 09:52:52;;;;;;;44.55;22.90;;;-1.80;72.20;;;;;;4100298;29;20051;-79
2024/01/10 09:54:56;;;;;;;44.70;21.88;;;-1.80;71.70;;;;;;4100260;29;20452;-77
2024/01/10 09:56:58;;;;;;;43.00;22.00;;;-1.70;71.60;;;;;;4100443;29;20075;-75
2024/01/10 09:59:04;;;;;;;41.45;21.45;;;-1.70;71.60;;;;;;4100432;29;20428;-77
2024/01/10 10:01:05;;;;;;;45.05;23.33;;;-1.60;71.30;;;;;;4100231;29;20051;-79
2024/01/10 10:03:11;;;;;;;42.75;21.98;;;-1.60;70.90;;;;;;4098600;28;20093;-75
2024/01/10 10:05:15;;;;;;;43.90;22.40;;;-1.60;71.00;;;;;;4098090;29;20043;-75
2024/01/10 10:07:17;;;;;;;46.25;22.85;;;-1.60;71.00;;;;;;4098201;29;20078;-80
2024/01/10 10:09:19;;;;;;;46.97;23.55;;;-1.50;71.10;;;;;;4098161;29;20051;-76
2024/01/10 10:11:21;;;;;;;44.25;22.20;;;-1.60;71.00;;;;;;4098556;29;20048;-74
2024/01/10 10:13:28;;;;;;;47.05;22.95;;;-1.50;71.10;;;;;;4097997;29;20051;-76
2024/01/10 10:15:30;;;;;;;47.22;23.60;;;-1.40;70.90;;;;;;4098039;29;20477;-76
2024/01/10 10:17:32;;;;;;;43.75;22.23;;;-1.40;71.10;;;;;;4098555;29;20047;-78
2024/01/10 10:19:34;;;;;;;43.08;22.27;;;-1.40;71.10;;;;;;4098073;29;20864;-77
2024/01/10 10:21:37;;;;;;;48.28;23.33;;;-1.40;70.90;;;;;;4096074;29;20106;-74
2024/01/10 10:23:40;;;;;;;44.70;22.95;;;-1.30;70.80;;;;;;4098254;29;20051;-79
2024/01/10 10:25:44;;;;;;;42.05;22.70;;;-1.20;70.50;;;;;;4098481;29;20051;-75
2024/01/10 10:27:46;;;;;;;44.92;22.95;;;-1.20;70.20;;;;;;4103840;29;20051;-77
2024/01/10 10:29:47;;;;;;;44.63;21.95;;;-1.10;70.00;;;;;;4112557;29;20055;-76
2024/01/10 10:31:50;;;;;;;43.83;21.98;;;-1.10;69.70;;;;;;4100198;29;20051;-78
2024/01/10 10:33:52;;;;;;;40.58;21.48;;;-1.00;69.40;;;;;;4098267;29;20464;-75
2024/01/10 10:35:55;;;;;;;42.35;21.65;;;-1.10;69.20;;;;;;4098263;29;20465;-77
2024/01/10 10:38:00;;;;;;;48.20;23.63;;;-1.00;69.60;;;;;;4098287;29;20059;-77
2024/01/10 10:40:01;;;;;;;45.92;22.08;;;-0.90;69.70;;;;;;4098026;29;20492;-76
2024/01/10 10:42:06;;;;;;;43.70;21.63;;;-0.80;69.30;;;;;;4097433;29;20051;-77
2024/01/10 10:44:10;;;;;;;41.08;21.27;;;-0.90;68.70;;;;;;4097943;29;20055;-76
2024/01/10 10:46:13;;;;;;;38.50;20.88;;;-0.90;68.60;;;;;;4098636;28;20051;-79
2024/01/10 10:48:18;;;;;;;42.13;22.00;;;-0.90;68.40;;;;;;4101170;29;20062;-80
2024/01/10 10:50:23;;;;;;;42.28;22.10;;;-0.90;68.40;;;;;;4103073;29;20047;-76
2024/01/10 10:52:26;;;;;;;42.58;22.10;;;-0.80;68.10;;;;;;4105932;29;20428;-75
2024/01/10 10:54:31;;;;;;;43.50;22.92;;;-0.80;68.50;;;;;;4103795;29;20110;-75
2024/01/10 10:56:35;;;;;;;39.97;21.58;;;-0.80;67.90;;;;;;4101837;29;20408;-76
2024/01/10 10:58:40;;;;;;;41.60;21.33;;;-0.80;67.90;;;;;;4100876;29;20466;-76
2024/01/10 11:00:43;;;;;;;40.92;21.60;;;-0.70;67.80;;;;;;4100802;29;20054;-79
2024/01/10 11:02:46;;;;;;;42.13;21.73;;;-0.70;67.60;;;;;;4100498;29;20063;-78
2024/01/10 11:04:49;;;;;;;45.30;21.80;;;-0.60;67.20;;;;;;4100773;29;20043;-78
2024/01/10 11:06:52;;;;;;;45.80;22.20;;;-0.60;67.30;;;;;;4101006;29;20055;-76
2024/01/10 11:08:59;;;;;;;44.75;21.92;;;-0.50;67.60;;;;;;4100842;29;20051;-77
2024/01/10 11:11:06;;;;;;;42.45;21.25;;;-0.50;67.10;;;;;;4101166;29;20055;-78
2024/01/10 11:13:29;;;;;;;42.35;21.85;;;-0.40;66.80;;;;;;4100740;29;20409;-75
2024/01/10 11:15:54;;;;;;;43.60;21.27;;;-0.30;66.60;;;;;;4100443;29;20103;-76
2024/01/10 11:18:12;;;;;;;46.20;21.67;;;-0.30;66.50;;;;;;4100593;29;20067;-76
2024/01/10 11:20:48;;;;;;;37.70;21.02;;;-0.30;66.30;;;;;;4100723;29;20548;-80
2024/01/10 11:23:09;;;;;;;44.83;21.95;;;-0.20;66.30;;;;;;4099516;29;20389;-78
2024/01/10 11:25:12;;;;;;;43.92;21.75;;;-0.30;66.00;;;;;;4100834;29;20051;-77
2024/01/10 11:27:16;;;;;;;43.78;21.40;;;-0.30;65.90;;;;;;4100418;29;20055;-76
2024/01/10 11:29:18;;;;;;;40.88;21.70;;;-0.30;66.00;;;;;;4100376;29;20552;-77
2024/01/10 11:31:30;;;;;;;46.92;22.75;;;-0.20;66.20;;;;;;4100512;29;20051;-80
2024/01/10 11:33:34;;;;;;;43.72;23.17;;;-0.10;66.30;;;;;;4100641;29;20395;-77
2024/01/10 11:35:37;;;;;;;45.72;21.92;;;-0.10;65.90;;;;;;4100485;29;20106;-77
2024/01/10 11:37:45;;;;;;;38.40;21.23;;;0.00;65.90;;;;;;4100310;29;20071;-78
2024/01/10 11:39:47;;;;;;;44.00;21.10;;;0.10;65.60;;;;;;4100334;29;20059;-78
2024/01/10 11:41:49;;;;;;;39.47;20.63;;;0.20;65.70;;;;;;4100217;29;20536;-80
2024/01/10 11:44:28;;;;;;;41.78;20.75;;;0.20;65.10;;;;;;4100310;29;20059;-81
2024/01/10 11:46:31;;;;;;;44.95;22.33;;;0.30;65.10;;;;;;4060201;29;20059;-79
2024/01/10 11:48:33;;;;;;;39.08;21.17;;;0.40;65.00;;;;;;4100325;29;20146;-79
2024/01/10 11:50:36;;;;;;;43.85;22.13;;;0.40;64.90;;;;;;4099734;29;20073;-79
2024/01/10 11:52:38;;;;;;;41.88;22.42;;;0.50;64.60;;;;;;4100087;29;20318;-77
2024/01/10 11:54:41;;;;;;;41.13;21.60;;;0.60;64.20;;;;;;4100166;29;20054;-80
2024/01/10 11:56:46;;;;;;;45.72;21.08;;;0.60;64.10;;;;;;4100012;28;20063;-79
2024/01/10 11:58:55;;;;;;;41.63;20.40;;;0.70;63.80;;;;;;4099445;29;20055;-78
2024/01/10 12:00:58;;;;;;;37.10;20.02;;;0.70;63.10;;;;;;4099958;29;20437;-78
2024/01/10 12:02:59;;;;;;;37.15;20.23;;;0.70;62.80;;;;;;4100168;29;20051;-78
2024/01/10 12:05:02;;;;;;;41.55;21.33;;;0.80;62.50;;;;;;4099996;29;20106;-78
2024/01/10 12:07:03;;;;;;;41.80;21.55;;;0.80;62.10;;;;;;4100138;29;20093;-79
2024/01/10 12:09:08;;;;;;;37.60;20.02;;;0.90;62.20;;;;;;4105018;29;20523;-76
2024/01/10 12:11:10;;;;;;;39.75;21.02;;;1.00;62.40;;;;;;4110039;29;20118;-77
2024/01/10 12:13:12;;;;;;;39.20;21.40;;;1.20;62.30;;;;;;4103792;29;20055;-75
2024/01/10 12:15:15;;;;;;;39.58;21.00;;;1.30;62.00;;;;;;4099588;29;20058;-80
2024/01/10 12:17:18;;;;;;;39.40;20.38;;;1.30;60.90;;;;;;4100058;29;20047;-78
2024/01/10 12:19:20;;;;;;;35.50;20.02;;;1.40;61.40;;;;;;4099747;29;20055;-76
2024/01/10 12:21:23;;;;;;;38.80;21.05;;;1.60;61.30;;;;;;4098004;29;20055;-76
2024/01/10 12:23:30;;;;;;;40.45;20.83;;;1.70;61.20;;;;;;4099838;29;20047;-78
2024/01/10 12:25:32;;;;;;;38.80;19.90;;;1.90;60.80;;;;;;4099653;29;20146;-77
2024/01/10 12:27:34;;;;;;;38.55;19.40;;;2.00;60.90;;;;;;4099149;29;20485;-78
2024/01/10 12:29:36;;;;;;;36.88;19.83;;;2.20;60.20;;;;;;4099770;29;20063;-75
2024/01/10 12:31:38;;;;;;;37.72;20.23;;;2.30;59.50;;;;;;4099447;29;20105;-79
2024/01/10 12:33:43;;;;;;;37.22;20.08;;;2.40;59.30;;;;;;4099676;29;20051;-78
2024/01/10 12:35:43;;;;;;;39.08;20.58;;;2.60;59.20;;;;;;4099648;29;20051;-78
2024/01/10 12:37:55;;;;;;;40.88;20.55;;;2.70;58.90;;;;;;4099341;29;20105;-79
2024/01/10 12:39:57;;;;;;;38.40;20.55;;;3.00;58.70;;;;;;4099665;29;20082;-80
2024/01/10 12:41:59;;;;;;;38.95;20.55;;;3.10;57.50;;;;;;4099574;29;20066;-78
2024/01/10 12:44:03;;;;;;;40.17;20.35;;;3.30;56.30;;;;;;4099351;29;20556;-77
2024/01/10 12:46:06;;;;;;;38.67;20.27;;;3.50;56.40;;;;;;4099311;29;20051;-77
2024/01/10 12:48:09;;;;;;;36.65;19.85;;;3.60;56.60;;;;;;4099222;29;20055;-79
2024/01/10 12:50:12;;;;;;;39.72;21.05;;;3.90;56.00;;;;;;4098979;29;20053;-79
2024/01/10 12:52:15;;;;;;;37.58;20.20;;;4.10;55.20;;;;;;4098979;29;20050;-80
2024/01/10 12:54:18;;;;;;;36.10;20.10;;;4.50;54.10;;;;;;4099304;29;20047;-78
2024/01/10 12:56:19;;;;;;;36.17;19.30;;;4.90;53.20;;;;;;4099072;29;20098;-78
2024/01/10 12:58:21;;;;;;;35.40;19.13;;;5.80;52.00;;;;;;4099022;29;20059;-80
2024/01/10 13:00:23;;;;;;;37.22;20.77;;;8.90;47.40;;;;;;4099670;29;20098;-78
2024/01/10 13:02:25;;;;;;;35.65;20.30;;;11.90;40.60;;;;;;4100440;29;20061;-78
2024/01/10 13:04:27;;;;;;;34.67;20.17;;;13.90;35.80;;;;;;4102722;29;20663;-75
2024/01/10 13:06:31;;;;;;;34.55;20.08;;;14.80;31.80;;;;;;4100641;29;20055;-75
2024/01/10 13:08:32;;;;;;;33.00;21.27;;;16.50;30.10;;;;;;4100306;28;20078;-77
2024/01/10 13:10:34;;;;;;;33.13;20.95;;;17.70;27.90;;;;;;4100411;29;20058;-74
2024/01/10 13:12:35;;;;;;;35.72;21.58;;;18.80;27.00;;;;;;4100775;29;20623;-76
2024/01/10 13:14:37;;;;;;;34.33;21.88;;;19.60;25.80;;;;;;4100420;29;20090;-74
2024/01/10 13:16:39;;;;;;;32.67;22.10;;;20.30;25.00;;;;;;4098757;29;20109;-81
2024/01/10 13:18:41;;;;;;;33.88;22.08;;;21.10;24.10;;;;;;4098850;29;20461;-78
2024/01/10 13:20:44;;;;;;;34.00;22.17;;;22.00;23.00;;;;;;4098871;29;20138;-79
2024/01/10 13:22:46;;;;;;;30.08;21.02;;;22.70;22.20;;;;;;4097242;29;20159;-76
2024/01/10 13:24:48;;;;;;;33.65;22.08;;;23.10;21.90;;;;;;4098910;29;20383;-79
2024/01/10 13:26:50;;;;;;;36.25;22.67;;;23.60;21.20;;;;;;4098287;29;20138;-78
2024/01/10 13:28:51;;;;;;;33.70;22.92;;;24.00;20.60;;;;;;4099178;29;20481;-79
2024/01/10 13:30:55;;;;;;;33.40;21.88;;;24.30;20.20;;;;;;4098714;29;20055;-78
2024/01/10 13:32:57;;;;;;;34.40;22.63;;;24.30;19.90;;;;;;4098647;29;20059;-79
2024/01/10 13:34:58;;;;;;;31.75;22.65;;;24.80;19.50;;;;;;4098575;29;20488;-78
2024/01/10 13:37:02;;;;;;;32.10;22.77;;;25.20;19.30;;;;;;4098749;29;20051;-78
2024/01/10 13:39:05;;;;;;;31.40;22.27;;;25.60;18.70;;;;;;4098339;29;20171;-80
2024/01/10 13:41:07;;;;;;;33.63;23.25;;;25.50;18.60;;;;;;4098438;29;20054;-79
2024/01/10 13:43:09;;;;;;;32.28;21.83;;;26.10;18.20;;;;;;4098676;29;20469;-77
2024/01/10 13:45:11;;;;;;;32.47;22.33;;;26.20;17.90;;;;;;4098478;29;20059;-78
2024/01/10 13:47:14;;;;;;;29.48;22.30;;;26.40;17.80;;;;;;4098764;29;20392;-79
2024/01/10 13:49:16;;;;;;;30.17;22.25;;;26.80;17.50;;;;;;4098888;29;20106;-76
2024/01/10 13:51:18;;;;;;;31.33;22.98;;;27.20;17.30;;;;;;4099158;29;20051;-79
2024/01/10 13:53:19;;;;;;;31.00;22.33;;;27.50;17.00;;;;;;4100050;29;20134;-79
2024/01/10 13:55:23;;;;;;;32.35;23.30;;;28.00;16.60;;;;;;4100292;29;20051;-78
2024/01/10 13:57:25;;;;;;;31.70;22.13;;;28.20;16.50;;;;;;4099607;29;20047;-78
2024/01/10 13:59:27;;;;;;;29.92;22.15;;;28.30;16.30;;;;;;4098818;29;20055;-77
2024/01/10 14:01:28;;;;;;;30.30;22.10;;;27.90;16.40;;;;;;4099379;29;20059;-79
2024/01/10 14:03:30;;;;;;;30.48;22.17;;;27.60;16.60;;;;;;4098184;29;20086;-78
2024/01/10 14:05:31;;;;;;;28.60;22.27;;;27.70;16.50;;;;;;4098467;29;20055;-79
2024/01/10 14:07:34;;;;;;;29.75;23.00;;;27.60;16.10;;;;;;4098615;29;20110;-80
2024/01/10 14:09:34;;;;;;;34.60;25.40;;;27.80;16.40;;;;;;4098553;29;20058;-78
2024/01/10 14:11:38;;;;;;;30.65;23.85;;;28.20;16.10;;;;;;4098441;29;20136;-78
2024/01/10 14:13:39;;;;;;;34.15;25.23;;;28.10;16.10;;;;;;4098452;29;20051;-79
2024/01/10 14:15:41;;;;;;;30.10;23.33;;;27.90;16.00;;;;;;4098249;29;20070;-79
2024/01/10 14:17:42;;;;;;;29.98;22.67;;;27.70;16.20;;;;;;4098253;29;20075;-79
2024/01/10 14:19:44;;;;;;;29.73;22.80;;;27.80;16.20;;;;;;4098022;29;20054;-80
2024/01/10 14:21:46;;;;;;;30.17;22.92;;;28.00;16.00;;;;;;4098504;29;20394;-78
2024/01/10 14:23:48;;;;;;;28.30;22.88;;;28.10;15.90;;;;;;4101470;29;20663;-79
2024/01/10 14:25:53;;;;;;;30.83;22.55;;;27.70;15.80;;;;;;4101236;29;20110;-75
2024/01/10 14:27:58;;;;;;;28.73;23.33;;;27.20;16.30;;;;;;4101043;29;20059;-77
2024/01/10 14:30:03;;;;;;;28.63;23.35;;;26.90;16.60;;;;;;4101658;29;20106;-79
2024/01/10 14:32:05;;;;;;;32.15;23.67;;;27.00;16.40;;;;;;4101288;29;20051;-79
2024/01/10 14:34:06;;;;;;;30.77;23.90;;;27.10;16.20;;;;;;4101532;29;20047;-76
2024/01/10 14:36:08;;;;;;;30.35;23.05;;;26.70;16.50;;;;;;4101460;29;20051;-78
2024/01/10 14:38:11;;;;;;;32.83;24.63;;;25.50;16.90;;;;;;4100994;29;20055;-78
2024/01/10 14:40:13;;;;;;;38.80;28.77;;;24.40;17.30;;;;;;4101255;29;20047;-80
2024/01/10 14:42:15;;;;;;;33.50;25.27;;;23.90;18.00;;;;;;4101599;29;20094;-80
2024/01/10 14:44:18;;;;;;;36.17;26.10;;;23.70;18.30;;;;;;4101414;29;20063;-78
2024/01/10 14:46:20;;;;;;;33.00;24.25;;;22.20;18.90;;;;;;4101025;29;20047;-74
2024/01/10 14:48:22;;;;;;;37.20;25.98;;;19.80;20.80;;;;;;4101099;29;20143;-77
2024/01/10 14:50:24;;;;;;;36.72;25.80;;;17.80;22.70;;;;;;4101297;29;20102;-76
2024/01/10 14:52:26;;;;;;;40.30;27.98;;;16.40;24.40;;;;;;4110266;29;20051;-77
2024/01/10 14:54:28;;;;;;;36.67;25.33;;;15.20;25.80;;;;;;4117362;29;20059;-78
2024/01/10 14:56:29;;;;;;;36.38;24.35;;;14.10;27.60;;;;;;4117921;29;20062;-76
2024/01/10 14:58:31;;;;;;;37.95;26.05;;;13.20;28.40;;;;;;4117525;29;20544;-76
2024/01/10 15:00:35;;;;;;;36.63;26.33;;;13.80;29.00;;;;;;4119810;29;20500;-78
2024/01/10 15:02:36;;;;;;;37.03;27.45;;;15.10;27.70;;;;;;4116696;29;20047;-75
2024/01/10 15:04:38;;;;;;;38.78;27.05;;;16.00;26.50;;;;;;4103551;29;20048;-80
2024/01/10 15:06:45;;;;;;;37.00;25.90;;;16.60;25.80;;;;;;4101244;29;20078;-78
2024/01/10 15:08:47;;;;;;;34.85;25.23;;;16.90;25.20;;;;;;4101422;29;20110;-79
2024/01/10 15:10:49;;;;;;;39.08;24.98;;;16.60;25.30;;;;;;4101026;29;20602;-79
2024/01/10 15:12:50;;;;;;;35.28;24.67;;;16.50;25.50;;;;;;4100643;29;20102;-74
2024/01/10 15:14:53;;;;;;;37.70;25.63;;;16.40;25.70;;;;;;4100406;29;20110;-76
2024/01/10 15:16:58;;;;;;;36.72;24.60;;;15.90;26.20;;;;;;4100530;29;20051;-78
2024/01/10 15:19:00;;;;;;;38.92;26.30;;;15.60;26.70;;;;;;4101362;29;20051;-77
2024/01/10 15:21:04;;;;;;;39.50;25.83;;;15.30;27.00;;;;;;4098648;29;20047;-75
2024/01/10 15:23:06;;;;;;;36.05;23.83;;;14.80;27.50;;;;;;4100650;29;20058;-77
2024/01/10 15:25:10;;;;;;;41.83;24.70;;;14.30;28.00;;;;;;4100568;29;20469;-80
2024/01/10 15:27:12;;;;;;;37.97;24.88;;;13.50;28.80;;;;;;4113062;29;20051;-74
2024/01/10 15:29:15;;;;;;;39.25;24.83;;;12.50;30.00;;;;;;4117134;29;20056;-78
2024/01/10 15:31:17;;;;;;;40.55;24.77;;;11.60;31.70;;;;;;4103166;29;20463;-76
2024/01/10 15:33:20;;;;;;;41.42;24.45;;;10.50;33.70;;;;;;4100385;28;20054;-79
2024/01/10 15:35:22;;;;;;;38.35;23.75;;;9.70;35.60;;;;;;4100690;29;20047;-76
2024/01/10 15:37:24;;;;;;;41.95;24.85;;;9.10;37.20;;;;;;4100161;29;20051;-78
2024/01/10 15:39:27;;;;;;;39.47;25.20;;;8.60;38.20;;;;;;4100269;29;20098;-77
2024/01/10 15:41:28;;;;;;;38.10;23.98;;;8.10;39.40;;;;;;4100160;29;20089;-76
2024/01/10 15:43:30;;;;;;;39.97;24.33;;;7.60;40.40;;;;;;4100619;29;20051;-79
2024/01/10 15:45:33;;;;;;;40.40;24.50;;;7.30;41.50;;;;;;4100153;29;20484;-80
2024/01/10 15:47:34;;;;;;;40.35;23.58;;;6.80;43.00;;;;;;4100060;29;20047;-81
2024/01/10 15:49:38;;;;;;;39.10;23.35;;;6.30;44.10;;;;;;4100226;29;20065;-78
2024/01/10 15:51:40;;;;;;;41.10;23.80;;;6.00;45.70;;;;;;4100041;29;20047;-77
2024/01/10 15:53:43;;;;;;;43.67;24.65;;;5.70;45.80;;;;;;4099700;29;20051;-79
2024/01/10 15:55:45;;;;;;;46.38;25.75;;;5.60;46.10;;;;;;4100570;29;20051;-77
2024/01/10 15:57:47;;;;;;;41.05;24.23;;;5.40;46.50;;;;;;4100263;29;20055;-76
2024/01/10 15:59:49;;;;;;;40.65;23.02;;;5.20;47.70;;;;;;4100818;29;20051;-77
2024/01/10 16:01:51;;;;;;;41.05;23.35;;;5.00;48.40;;;;;;4106547;29;20137;-75
2024/01/10 16:03:53;;;;;;;42.17;23.83;;;4.60;49.70;;;;;;4100789;28;20469;-77
2024/01/10 16:05:55;;;;;;;40.33;23.75;;;4.40;50.20;;;;;;4102542;29;20098;-76
2024/01/10 16:07:57;;;;;;;45.78;23.33;;;4.30;50.50;;;;;;4104332;29;20086;-76
2024/01/10 16:09:59;;;;;;;39.70;23.40;;;4.20;50.80;;;;;;4106353;29;20047;-75
2024/01/10 16:12:01;;;;;;;45.67;23.70;;;4.10;51.50;;;;;;4107637;29;20055;-72
2024/01/10 16:14:02;;;;;;;42.55;23.50;;;3.90;51.90;;;;;;4107880;29;20106;-73
2024/01/10 16:16:08;;;;;;;38.67;22.92;;;3.70;52.80;;;;;;4101649;29;20137;-73
2024/01/10 16:18:10;;;;;;;41.45;22.55;;;3.40;53.70;;;;;;4103004;29;20058;-74
2024/01/10 16:20:13;;;;;;;40.97;22.48;;;3.10;54.90;;;;;;4101724;29;20051;-74
2024/01/10 16:22:17;;;;;;;40.83;22.95;;;3.00;55.20;;;;;;4099131;29;20054;-76
2024/01/10 16:24:18;;;;;;;61.88;33.10;;;3.00;55.00;;;;;;4099315;29;20053;-80